Croydon, United Kingdom
Current Conditions -  °F | °C
As of 8:50 AM on Monday 20 Oct 2014 (Local Time) from EGKB Reporting Station
Few Clouds Few Clouds  
Wind Chill: 11°   Ceiling: Unl
Heat Index: 11°   Visibility: 6mi
Dew Point:   Wind: 7mph
Humidity: 88%   Direction: 220°SW
Pressure: 30.03"   Gusts: NA
Location:  51.37°N, 0.1°W
Report Text: EGKB 200750Z 22006KT 9999 FEW017 11/09 Q1017
Loading
Personal Weather Stations






























Interactive Weather Map
Tropical Storm Tracking
New forecast layout! Learn more

10-Day Weather Forecast

Advertisements
Track Severe Weather on mobile